createdAt,value
2022-09-09T00:00:47.109Z,7.53
2022-09-09T00:03:17.866Z,4.70
2022-09-09T00:06:04.795Z,5.32
2022-09-09T00:08:55.873Z,4.88
2022-09-09T00:11:31.334Z,4.97
2022-09-09T00:13:59.485Z,5.65
2022-09-09T00:16:27.044Z,5.82
2022-09-09T00:18:58.804Z,5.10
2022-09-09T00:21:36.055Z,4.38
2022-09-09T00:24:09.296Z,3.95
2022-09-09T00:26:39.217Z,5.10
2022-09-09T00:29:10.719Z,4.57
2022-09-09T00:31:38.147Z,5.78
2022-09-09T00:34:34.020Z,4.68
2022-09-09T00:37:00.604Z,5.47
2022-09-09T00:39:39.000Z,7.00
2022-09-09T00:42:19.583Z,7.07
2022-09-09T00:44:53.521Z,5.38
2022-09-09T00:47:31.497Z,6.13
2022-09-09T00:50:04.277Z,6.38
2022-09-09T00:52:43.461Z,7.05
2022-09-09T00:55:19.774Z,7.22
2022-09-09T00:57:47.344Z,3.97
2022-09-09T01:00:22.933Z,5.32
2022-09-09T01:03:08.189Z,6.95
2022-09-09T01:05:40.255Z,7.05
2022-09-09T01:08:12.850Z,4.60
2022-09-09T01:10:48.024Z,5.05
2022-09-09T01:13:19.999Z,7.20
2022-09-09T01:15:47.757Z,6.35
2022-09-09T01:18:18.364Z,8.23
2022-09-09T01:20:52.634Z,3.53
2022-09-09T01:23:35.116Z,8.98
2022-09-09T01:26:24.741Z,6.80
2022-09-09T01:28:53.584Z,5.00
2022-09-09T01:31:27.462Z,6.85
2022-09-09T01:33:54.088Z,4.63
2022-09-09T01:36:27.470Z,5.72
2022-09-09T01:38:54.828Z,4.10
2022-09-09T01:41:21.528Z,4.75
2022-09-09T01:44:00.086Z,6.03
2022-09-09T01:46:28.824Z,7.05
2022-09-09T01:48:56.177Z,6.22
2022-09-09T01:51:22.635Z,7.82
2022-09-09T01:53:49.547Z,3.95
2022-09-09T01:56:36.065Z,6.40
2022-09-09T01:59:02.716Z,3.85
2022-09-09T02:01:36.942Z,4.20
2022-09-09T02:06:39.637Z,5.82
2022-09-09T02:09:30.136Z,5.43
2022-09-09T02:12:05.397Z,5.68
2022-09-09T02:14:42.257Z,5.35
2022-09-09T02:17:11.155Z,6.20
2022-09-09T02:19:56.015Z,3.63
2022-09-09T02:22:40.379Z,5.82
2022-09-09T02:25:09.372Z,6.55
2022-09-09T02:27:37.294Z,3.50
2022-09-09T02:30:04.579Z,3.60
2022-09-09T02:32:38.961Z,6.82
2022-09-09T02:35:09.785Z,4.55
2022-09-09T02:37:38.613Z,4.82
2022-09-09T02:40:06.418Z,5.03
2022-09-09T02:42:39.465Z,5.22
2022-09-09T02:45:06.276Z,3.53
2022-09-09T02:47:35.709Z,5.65
2022-09-09T02:50:19.976Z,5.15
2022-09-09T02:53:05.227Z,4.65
2022-09-09T02:55:32.882Z,3.67
2022-09-09T02:58:00.312Z,3.63
2022-09-09T03:00:29.132Z,3.05
2022-09-09T03:03:00.088Z,5.97
2022-09-09T03:05:27.101Z,4.10
2022-09-09T03:07:53.430Z,4.28
2022-09-09T03:10:20.597Z,5.93
2022-09-09T03:12:47.229Z,3.45
2022-09-09T03:15:14.651Z,8.15
2022-09-09T03:17:42.014Z,6.85
2022-09-09T03:20:09.107Z,7.82
2022-09-09T03:22:37.012Z,5.78
2022-09-09T03:25:06.694Z,5.82
2022-09-09T03:27:34.803Z,6.20
2022-09-09T03:30:01.445Z,7.47
2022-09-09T03:32:29.105Z,9.15
2022-09-09T03:34:57.186Z,6.20
2022-09-09T03:37:24.020Z,6.22
2022-09-09T03:39:51.187Z,4.05
2022-09-09T03:42:21.882Z,4.13
2022-09-09T03:44:52.224Z,8.18
2022-09-09T03:47:22.597Z,9.30
2022-09-09T03:49:51.366Z,6.07
2022-09-09T03:52:21.608Z,5.78
2022-09-09T03:54:50.434Z,6.63
2022-09-09T03:57:17.848Z,6.13
2022-09-09T03:59:44.454Z,5.15
2022-09-09T04:02:11.001Z,7.03
2022-09-09T04:04:37.766Z,5.13
2022-09-09T04:07:07.066Z,4.80
2022-09-09T04:09:34.032Z,4.65
2022-09-09T04:12:01.035Z,7.72
2022-09-09T04:14:29.600Z,6.28
2022-09-09T04:16:58.271Z,5.05
2022-09-09T04:19:26.015Z,7.00
2022-09-09T04:21:52.680Z,5.38
2022-09-09T04:24:22.465Z,5.22
2022-09-09T04:26:49.964Z,7.55
2022-09-09T04:29:16.800Z,5.78
2022-09-09T04:31:43.268Z,5.20
2022-09-09T04:34:10.211Z,4.40
2022-09-09T04:36:37.182Z,8.60
2022-09-09T04:39:05.501Z,5.28
2022-09-09T04:41:32.326Z,7.78
2022-09-09T04:43:59.857Z,5.97
2022-09-09T04:46:26.271Z,5.10
2022-09-09T04:48:53.580Z,5.57
2022-09-09T04:51:20.957Z,4.68
2022-09-09T04:53:49.781Z,7.68
2022-09-09T04:56:18.089Z,5.03
2022-09-09T04:58:49.769Z,7.18
2022-09-09T05:01:19.135Z,8.55
2022-09-09T05:03:46.792Z,5.75
2022-09-09T05:06:17.549Z,5.00
2022-09-09T05:08:45.397Z,5.15
2022-09-09T05:11:17.309Z,7.20
2022-09-09T05:13:43.717Z,5.30
2022-09-09T05:16:11.693Z,5.43
2022-09-09T05:18:41.536Z,5.20
2022-09-09T05:21:08.385Z,7.07
2022-09-09T05:23:35.033Z,5.25
2022-09-09T05:26:02.097Z,6.50
2022-09-09T05:28:31.122Z,9.20
2022-09-09T05:31:01.800Z,5.43
2022-09-09T05:33:30.634Z,6.65
2022-09-09T05:35:58.343Z,6.80
2022-09-09T05:38:28.775Z,7.40
2022-09-09T05:40:56.934Z,7.35
2022-09-09T05:43:23.781Z,9.50
2022-09-09T05:46:00.942Z,6.28
2022-09-09T05:48:28.780Z,5.55
2022-09-09T05:50:55.328Z,9.25
2022-09-09T05:53:21.725Z,7.32
2022-09-09T05:55:49.141Z,9.38
2022-09-09T05:58:17.696Z,5.63
2022-09-09T06:00:44.945Z,4.97
2022-09-09T06:03:12.529Z,5.80
2022-09-09T06:05:39.548Z,6.88
2022-09-09T06:08:06.212Z,5.95
2022-09-09T06:10:32.589Z,7.78
2022-09-09T06:12:59.194Z,6.93
2022-09-09T06:15:25.592Z,5.07
2022-09-09T06:17:56.376Z,5.88
2022-09-09T06:20:23.184Z,7.65
2022-09-09T06:22:49.636Z,7.90
2022-09-09T06:25:16.065Z,8.00
2022-09-09T06:27:42.985Z,8.02
2022-09-09T06:30:10.691Z,7.53
2022-09-09T06:32:38.753Z,3.83
2022-09-09T06:35:05.347Z,6.68
2022-09-09T06:37:32.046Z,7.32
2022-09-09T06:39:58.573Z,7.93
2022-09-09T06:42:24.962Z,6.60
2022-09-09T06:45:11.901Z,7.85
2022-09-09T06:47:46.233Z,4.22
2022-09-09T06:50:15.304Z,6.75
2022-09-09T06:52:42.480Z,7.07
2022-09-09T06:55:10.193Z,5.72
2022-09-09T06:57:37.820Z,6.43
2022-09-09T07:00:21.742Z,5.75
2022-09-09T07:02:48.965Z,9.43
2022-09-09T07:05:16.277Z,7.90
2022-09-09T07:07:43.926Z,7.22
2022-09-09T07:10:11.907Z,7.25
2022-09-09T07:12:38.504Z,5.95
2022-09-09T07:15:05.930Z,5.82
2022-09-09T07:17:32.332Z,9.85
2022-09-09T07:19:59.804Z,8.32
2022-09-09T07:22:28.272Z,6.15
2022-09-09T07:24:54.568Z,7.20
2022-09-09T07:27:20.897Z,6.35
2022-09-09T07:29:49.086Z,9.13
2022-09-09T07:32:16.225Z,8.80
2022-09-09T07:34:42.501Z,7.90
2022-09-09T07:37:12.528Z,6.88
2022-09-09T07:39:40.928Z,8.45
2022-09-09T07:42:07.894Z,10.60
2022-09-09T07:44:36.413Z,5.82
2022-09-09T07:47:10.442Z,6.93
2022-09-09T07:49:41.988Z,5.97
2022-09-09T07:52:09.042Z,5.05
2022-09-09T07:54:37.679Z,5.40
2022-09-09T07:57:06.273Z,7.55
2022-09-09T07:59:35.248Z,7.82
2022-09-09T08:02:02.893Z,11.30
2022-09-09T08:04:31.905Z,7.22
2022-09-09T08:06:59.391Z,6.03
2022-09-09T08:09:29.542Z,9.18
2022-09-09T08:12:09.174Z,6.20
2022-09-09T08:14:35.781Z,7.15
2022-09-09T08:17:02.254Z,7.78
2022-09-09T08:19:30.933Z,6.63
2022-09-09T08:21:58.753Z,8.13
2022-09-09T08:24:25.241Z,7.47
2022-09-09T08:26:52.239Z,7.82
2022-09-09T08:29:22.396Z,8.15
2022-09-09T08:31:50.564Z,8.55
2022-09-09T08:34:16.954Z,6.45
2022-09-09T08:36:44.640Z,9.32
2022-09-09T08:39:13.117Z,7.45
2022-09-09T08:41:43.108Z,7.97
2022-09-09T08:44:09.460Z,7.88
2022-09-09T08:46:36.258Z,7.03
2022-09-09T08:49:21.593Z,10.98
2022-09-09T08:51:50.560Z,5.75
2022-09-09T08:54:30.133Z,12.02
2022-09-09T08:57:04.664Z,10.52
2022-09-09T08:59:31.005Z,13.52
2022-09-09T09:02:05.108Z,13.18
2022-09-09T09:04:49.895Z,12.43
2022-09-09T09:07:16.753Z,12.45
2022-09-09T09:10:00.127Z,9.80
2022-09-09T09:12:30.811Z,9.98
2022-09-09T09:14:59.662Z,9.60
2022-09-09T09:17:28.427Z,10.68
2022-09-09T09:19:54.834Z,10.50
2022-09-09T09:22:23.160Z,9.07
2022-09-09T09:25:05.972Z,11.52
2022-09-09T09:27:34.167Z,10.90
2022-09-09T09:32:54.551Z,10.18
2022-09-09T09:35:21.266Z,10.30
2022-09-09T09:40:35.502Z,6.72
2022-09-09T09:43:02.729Z,6.10
2022-09-09T09:45:30.138Z,8.57
2022-09-09T09:48:07.437Z,5.22
2022-09-09T09:50:36.522Z,7.10
2022-09-09T09:53:04.977Z,10.80
2022-09-09T09:55:35.896Z,8.05
2022-09-09T09:58:06.998Z,9.98
2022-09-09T10:00:35.965Z,8.07
2022-09-09T10:03:28.101Z,10.77
2022-09-09T10:05:57.178Z,5.85
2022-09-09T10:08:24.665Z,7.15
2022-09-09T10:10:57.261Z,5.45
2022-09-09T10:13:30.135Z,7.22
2022-09-09T10:15:56.450Z,7.25
2022-09-09T10:18:22.769Z,8.48
2022-09-09T10:21:01.306Z,8.70
2022-09-09T10:23:33.381Z,5.65
2022-09-09T10:26:12.291Z,7.00
2022-09-09T10:28:41.652Z,4.90
2022-09-09T10:31:30.903Z,4.97
2022-09-09T10:33:57.245Z,6.05
2022-09-09T10:36:27.076Z,3.80
2022-09-09T10:38:58.390Z,7.88
2022-09-09T10:41:44.052Z,4.85
2022-09-09T10:44:31.741Z,4.35
2022-09-09T10:47:02.259Z,4.05
2022-09-09T10:49:57.160Z,3.60
2022-09-09T10:52:29.651Z,2.63
2022-09-09T10:54:59.297Z,3.80
2022-09-09T10:57:32.842Z,4.88
2022-09-09T11:00:05.927Z,4.97
2022-09-09T11:02:33.752Z,4.38
2022-09-09T11:05:03.027Z,4.40
2022-09-09T11:07:34.049Z,2.92
2022-09-09T11:10:03.740Z,4.13
2022-09-09T11:12:30.832Z,6.68
2022-09-09T11:15:03.209Z,5.53
2022-09-09T11:17:47.797Z,2.67
2022-09-09T11:20:14.592Z,3.25
2022-09-09T11:22:46.033Z,3.25
2022-09-09T11:25:17.377Z,3.65
2022-09-09T11:28:02.171Z,4.15
2022-09-09T11:30:56.522Z,4.47
2022-09-09T11:33:33.163Z,3.60
2022-09-09T11:36:18.701Z,6.13
2022-09-09T11:38:49.528Z,3.53
2022-09-09T11:41:21.006Z,3.97
2022-09-09T11:43:49.436Z,4.30
2022-09-09T11:46:16.528Z,4.03
2022-09-09T11:48:46.407Z,5.18
2022-09-09T11:51:17.088Z,4.07
2022-09-09T11:53:58.200Z,3.30
2022-09-09T11:56:27.070Z,1.98
2022-09-09T11:59:04.620Z,5.60
2022-09-09T12:01:31.084Z,4.22
2022-09-09T12:04:09.486Z,5.80
2022-09-09T12:07:05.247Z,6.93
2022-09-09T12:09:40.755Z,2.97
2022-09-09T12:12:08.377Z,6.15
2022-09-09T12:14:53.492Z,5.13
2022-09-09T12:17:23.707Z,7.20
2022-09-09T12:20:09.345Z,5.10
2022-09-09T12:22:35.750Z,4.82
2022-09-09T12:25:10.308Z,4.75
2022-09-09T12:27:44.152Z,5.72
2022-09-09T12:30:12.819Z,8.68
2022-09-09T12:32:39.168Z,5.22
2022-09-09T12:35:23.045Z,4.10
2022-09-09T12:37:59.003Z,4.97
2022-09-09T12:40:29.366Z,4.95
2022-09-09T12:43:00.014Z,4.38
2022-09-09T12:45:27.930Z,2.45
2022-09-09T12:48:02.370Z,2.88
2022-09-09T12:50:30.079Z,3.65
2022-09-09T12:52:59.344Z,4.15
2022-09-09T12:55:28.856Z,4.97
2022-09-09T12:57:55.153Z,5.32
2022-09-09T13:00:23.734Z,4.15
2022-09-09T13:02:51.812Z,4.80
2022-09-09T13:05:38.548Z,5.80
2022-09-09T13:08:06.185Z,3.38
2022-09-09T13:10:36.850Z,3.90
2022-09-09T13:13:04.030Z,3.45
2022-09-09T13:15:30.648Z,3.63
2022-09-09T13:17:58.457Z,2.40
2022-09-09T13:20:26.003Z,3.10
2022-09-09T13:22:53.748Z,2.28
2022-09-09T13:25:21.437Z,1.92
2022-09-09T13:27:59.181Z,3.33
2022-09-09T13:30:27.178Z,3.65
2022-09-09T13:33:04.408Z,3.08
2022-09-09T13:35:31.152Z,4.68
2022-09-09T13:37:57.549Z,5.85
2022-09-09T13:40:24.172Z,3.50
2022-09-09T13:42:56.816Z,2.95
2022-09-09T13:45:25.309Z,3.47
2022-09-09T13:47:53.599Z,3.65
2022-09-09T13:50:24.510Z,3.15
2022-09-09T13:52:53.864Z,6.85
2022-09-09T13:55:22.506Z,5.38
2022-09-09T13:57:59.066Z,5.18
2022-09-09T14:00:25.489Z,4.00
2022-09-09T14:02:52.186Z,4.93
2022-09-09T14:05:18.693Z,2.88
2022-09-09T14:07:45.644Z,4.10
2022-09-09T14:10:12.740Z,3.75
2022-09-09T14:12:39.170Z,2.25
2022-09-09T14:15:06.110Z,3.17
2022-09-09T14:17:32.645Z,4.45
2022-09-09T14:19:59.238Z,3.35
2022-09-09T14:22:26.600Z,3.20
2022-09-09T14:24:53.646Z,4.65
2022-09-09T14:27:20.732Z,3.45
2022-09-09T14:29:47.149Z,4.97
2022-09-09T14:32:13.503Z,3.90
2022-09-09T14:34:39.973Z,3.75
2022-09-09T14:37:06.243Z,3.45
2022-09-09T14:39:32.623Z,4.85
2022-09-09T14:41:59.136Z,3.45
2022-09-09T14:44:25.601Z,2.67
2022-09-09T14:46:51.873Z,6.68
2022-09-09T14:49:18.141Z,3.90
2022-09-09T14:51:44.439Z,6.43
2022-09-09T14:54:11.735Z,3.78
2022-09-09T14:56:38.809Z,3.50
2022-09-09T14:59:05.635Z,6.32
2022-09-09T15:01:33.049Z,4.45
2022-09-09T15:04:00.687Z,5.40
2022-09-09T15:06:31.050Z,3.40
2022-09-09T15:09:00.332Z,5.22
2022-09-09T15:11:28.660Z,2.78
2022-09-09T15:13:55.484Z,5.93
2022-09-09T15:16:22.734Z,6.47
2022-09-09T15:18:52.018Z,4.43
2022-09-09T15:21:22.503Z,4.68
2022-09-09T15:23:49.144Z,4.07
2022-09-09T15:26:16.114Z,5.72
2022-09-09T15:28:44.521Z,4.18
2022-09-09T15:31:21.672Z,5.18
2022-09-09T15:33:52.060Z,3.53
2022-09-09T15:36:20.274Z,2.92
2022-09-09T15:38:46.608Z,2.58
2022-09-09T15:41:14.269Z,2.67
2022-09-09T15:43:44.686Z,2.55
2022-09-09T15:46:31.278Z,2.63
2022-09-09T15:48:58.655Z,3.83
2022-09-09T15:51:41.612Z,4.55
2022-09-09T15:54:09.479Z,2.53
2022-09-09T15:56:35.770Z,3.03
2022-09-09T15:59:03.893Z,4.57
2022-09-09T16:01:31.236Z,3.60
2022-09-09T16:03:58.056Z,3.65
2022-09-09T16:06:25.472Z,2.25
2022-09-09T16:08:53.854Z,2.95
2022-09-09T16:11:24.865Z,4.80
2022-09-09T16:13:52.001Z,3.85
2022-09-09T16:16:20.369Z,2.38
2022-09-09T16:18:48.530Z,4.13
2022-09-09T16:21:20.485Z,4.85
2022-09-09T16:23:46.800Z,4.07
2022-09-09T16:26:14.314Z,3.78
2022-09-09T16:28:40.896Z,4.30
2022-09-09T16:31:08.007Z,4.25
2022-09-09T16:33:34.429Z,4.18
2022-09-09T16:36:05.843Z,4.32
2022-09-09T16:38:32.085Z,6.07
2022-09-09T16:41:01.872Z,3.50
2022-09-09T16:43:28.360Z,2.85
2022-09-09T16:45:54.646Z,4.72
2022-09-09T16:48:21.273Z,6.30
2022-09-09T16:50:47.554Z,3.00
2022-09-09T16:53:14.768Z,2.70
2022-09-09T16:55:41.752Z,6.05
2022-09-09T16:58:09.589Z,4.97
2022-09-09T17:00:35.945Z,2.47
2022-09-09T17:03:03.323Z,2.20
2022-09-09T17:05:29.950Z,3.47
2022-09-09T17:08:00.251Z,2.50
2022-09-09T17:10:26.579Z,4.78
2022-09-09T17:12:53.133Z,2.80
2022-09-09T17:15:19.735Z,3.35
2022-09-09T17:17:49.923Z,10.50
2022-09-09T17:20:16.960Z,3.85
2022-09-09T17:22:43.338Z,1.42
2022-09-09T17:25:09.704Z,1.38
2022-09-09T17:27:36.144Z,2.38
2022-09-09T17:30:03.822Z,3.15
2022-09-09T17:32:31.304Z,2.30
2022-09-09T17:34:57.728Z,2.78
2022-09-09T17:37:24.033Z,3.13
2022-09-09T17:39:50.749Z,2.03
2022-09-09T17:42:17.049Z,2.17
2022-09-09T17:44:43.324Z,3.22
2022-09-09T17:47:09.649Z,2.85
2022-09-09T17:49:35.975Z,3.92
2022-09-09T17:52:02.363Z,3.08
2022-09-09T17:54:28.697Z,1.73
2022-09-09T17:56:54.980Z,0.85
2022-09-09T17:59:21.278Z,1.33
2022-09-09T18:01:49.205Z,2.13
2022-09-09T18:04:16.760Z,1.83
2022-09-09T18:06:44.294Z,2.65
2022-09-09T18:09:13.196Z,3.53
2022-09-09T18:11:42.932Z,3.40
2022-09-09T18:14:13.289Z,2.17
2022-09-09T18:16:40.650Z,3.30
2022-09-09T18:19:09.240Z,3.95
2022-09-09T18:21:36.181Z,3.25
2022-09-09T18:24:04.341Z,2.95
2022-09-09T18:26:31.293Z,2.38
2022-09-09T18:28:59.309Z,3.10
2022-09-09T18:31:27.104Z,3.03
2022-09-09T18:33:54.305Z,2.80
2022-09-09T18:36:22.648Z,3.00
2022-09-09T18:38:49.577Z,2.97
2022-09-09T18:41:16.901Z,2.47
2022-09-09T18:43:43.340Z,5.78
2022-09-09T18:46:10.607Z,1.73
2022-09-09T18:48:37.558Z,2.85
2022-09-09T18:51:04.713Z,3.15
2022-09-09T18:53:31.077Z,2.42
2022-09-09T18:55:58.904Z,2.20
2022-09-09T18:58:25.181Z,2.92
2022-09-09T19:00:51.501Z,2.95
2022-09-09T19:03:17.773Z,4.63
2022-09-09T19:05:44.085Z,2.00
2022-09-09T19:08:10.348Z,3.08
2022-09-09T19:10:36.867Z,3.53
2022-09-09T19:13:04.181Z,3.38
2022-09-09T19:15:33.019Z,2.80
2022-09-09T19:18:03.975Z,4.07
2022-09-09T19:20:32.081Z,3.33
2022-09-09T19:22:58.389Z,4.38
2022-09-09T19:25:24.676Z,3.25
2022-09-09T19:27:50.960Z,1.77
2022-09-09T19:30:17.269Z,3.88
2022-09-09T19:32:53.200Z,4.55
2022-09-09T19:35:20.432Z,1.35
2022-09-09T19:37:46.797Z,2.85
2022-09-09T19:40:13.227Z,1.75
2022-09-09T19:42:40.734Z,2.40
2022-09-09T19:45:09.362Z,0.77
2022-09-09T19:47:35.896Z,2.60
2022-09-09T19:50:05.517Z,2.63
2022-09-09T19:52:31.905Z,2.13
2022-09-09T19:54:58.340Z,1.55
2022-09-09T19:57:28.446Z,3.28
2022-09-09T19:59:54.697Z,2.35
2022-09-09T20:02:21.084Z,1.60
2022-09-09T20:04:48.702Z,1.13
2022-09-09T20:07:15.023Z,5.78
2022-09-09T20:09:41.410Z,4.40
2022-09-09T20:12:09.107Z,0.73
2022-09-09T20:14:39.406Z,2.40
2022-09-09T20:17:06.893Z,3.25
2022-09-09T20:19:33.339Z,1.48
2022-09-09T20:21:59.711Z,3.40
2022-09-09T20:24:26.087Z,2.30
2022-09-09T20:26:52.393Z,2.90
2022-09-09T20:29:19.558Z,2.30
2022-09-09T20:31:46.028Z,2.30
2022-09-09T20:34:13.746Z,2.03
2022-09-09T20:36:41.161Z,1.70
2022-09-09T20:39:11.920Z,3.90
2022-09-09T20:41:38.806Z,1.75
2022-09-09T20:44:12.178Z,2.53
2022-09-09T20:46:39.454Z,2.90
2022-09-09T20:49:06.771Z,2.38
2022-09-09T20:51:33.569Z,3.83
2022-09-09T20:54:02.096Z,2.30
2022-09-09T20:56:32.284Z,4.05
2022-09-09T20:58:58.941Z,1.83
2022-09-09T21:01:25.251Z,1.73
2022-09-09T21:03:51.752Z,1.27
2022-09-09T21:06:18.077Z,2.95
2022-09-09T21:08:45.613Z,1.13
2022-09-09T21:11:12.253Z,4.90
2022-09-09T21:13:38.956Z,3.10
2022-09-09T21:16:06.389Z,5.88
2022-09-09T21:18:33.206Z,3.80
2022-09-09T21:20:59.563Z,1.70
2022-09-09T21:23:26.117Z,3.03
2022-09-09T21:25:52.382Z,4.03
2022-09-09T21:28:18.989Z,2.95
2022-09-09T21:30:50.383Z,1.90
2022-09-09T21:33:17.937Z,4.03
2022-09-09T21:35:44.785Z,1.83
2022-09-09T21:38:18.313Z,1.67
2022-09-09T21:40:44.859Z,3.65
2022-09-09T21:43:11.911Z,5.22
2022-09-09T21:45:38.651Z,4.38
2022-09-09T21:48:05.615Z,5.10
2022-09-09T21:50:35.681Z,2.75
2022-09-09T21:53:01.970Z,3.75
2022-09-09T21:55:28.293Z,2.45
2022-09-09T21:57:54.981Z,3.95
2022-09-09T22:00:21.729Z,2.55
2022-09-09T22:02:48.057Z,4.95
2022-09-09T22:05:14.418Z,6.10
2022-09-09T22:07:40.703Z,5.38
2022-09-09T22:10:07.496Z,6.43
2022-09-09T22:12:34.974Z,4.70
2022-09-09T22:15:01.243Z,4.03
2022-09-09T22:17:27.582Z,4.75
2022-09-09T22:19:53.848Z,7.28
2022-09-09T22:22:20.273Z,6.88
2022-09-09T22:24:46.632Z,4.35
2022-09-09T22:27:13.679Z,4.38
2022-09-09T22:29:40.153Z,5.13
2022-09-09T22:32:07.405Z,5.70
2022-09-09T22:34:34.808Z,7.32
2022-09-09T22:37:02.085Z,5.88
2022-09-09T22:39:28.864Z,6.63
2022-09-09T22:41:55.971Z,7.45
2022-09-09T22:44:26.213Z,11.38
2022-09-09T22:46:55.889Z,8.57
2022-09-09T22:49:23.121Z,7.15
2022-09-09T22:51:50.047Z,6.80
2022-09-09T22:54:21.477Z,6.80
2022-09-09T22:56:48.571Z,8.65
2022-09-09T22:59:15.818Z,10.80
2022-09-09T23:01:42.286Z,9.02
2022-09-09T23:04:08.607Z,12.43
2022-09-09T23:06:38.390Z,7.07
2022-09-09T23:09:05.339Z,8.13
2022-09-09T23:11:33.868Z,7.47
2022-09-09T23:14:01.416Z,9.52
2022-09-09T23:16:39.450Z,10.32
2022-09-09T23:19:09.830Z,9.13
2022-09-09T23:21:37.276Z,9.23
2022-09-09T23:24:04.901Z,7.95
2022-09-09T23:26:31.153Z,7.50
2022-09-09T23:29:02.284Z,10.40
2022-09-09T23:31:30.205Z,10.60
2022-09-09T23:33:58.042Z,12.07
2022-09-09T23:36:25.205Z,10.93
2022-09-09T23:38:51.564Z,8.55
2022-09-09T23:41:20.001Z,7.40
2022-09-09T23:43:49.832Z,10.48
2022-09-09T23:46:18.287Z,9.32
2022-09-09T23:48:44.593Z,11.38
2022-09-09T23:51:17.400Z,10.38
2022-09-09T23:53:44.529Z,9.07
2022-09-09T23:56:11.514Z,9.32
2022-09-09T23:58:38.185Z,9.88
